createdAt,value
2019-01-02T00:01:42.690Z,9.28
2019-01-02T00:04:12.089Z,9.25
2019-01-02T00:06:41.227Z,9.26
2019-01-02T00:09:10.631Z,9.29
2019-01-02T00:11:39.715Z,9.32
2019-01-02T00:14:08.847Z,9.35
2019-01-02T00:16:37.944Z,9.35
2019-01-02T00:19:07.015Z,9.33
2019-01-02T00:21:36.404Z,9.35
2019-01-02T00:24:05.490Z,9.37
2019-01-02T00:26:34.848Z,9.38
2019-01-02T00:29:03.990Z,9.41
2019-01-02T00:31:33.129Z,9.41
2019-01-02T00:34:02.160Z,9.41
2019-01-02T00:36:31.258Z,9.41
2019-01-02T00:39:00.392Z,9.42
2019-01-02T00:41:29.445Z,9.44
2019-01-02T00:43:58.546Z,9.47
2019-01-02T00:46:27.630Z,9.44
2019-01-02T00:48:56.740Z,9.46
2019-01-02T00:51:25.796Z,9.46
2019-01-02T00:53:55.126Z,9.45
2019-01-02T00:56:24.218Z,9.43
2019-01-02T00:58:53.714Z,9.44
2019-01-02T01:01:22.786Z,9.45
2019-01-02T01:03:52.215Z,9.46
2019-01-02T01:06:21.304Z,9.45
2019-01-02T01:08:50.416Z,9.47
2019-01-02T01:11:19.547Z,9.48
2019-01-02T01:13:48.649Z,9.45
2019-01-02T01:16:17.672Z,9.48
2019-01-02T01:18:46.767Z,9.49
2019-01-02T01:21:15.841Z,9.47
2019-01-02T01:23:44.882Z,9.50
2019-01-02T01:26:13.999Z,9.48
2019-01-02T01:28:43.480Z,9.46
2019-01-02T01:31:12.591Z,9.47
2019-01-02T01:33:41.849Z,9.48
2019-01-02T01:36:11.186Z,9.49
2019-01-02T01:38:42.961Z,9.51
2019-01-02T01:41:11.284Z,9.53
2019-01-02T01:43:40.742Z,9.55
2019-01-02T01:46:09.838Z,9.53
2019-01-02T01:48:39.165Z,9.52
2019-01-02T01:51:08.347Z,9.51
2019-01-02T01:53:37.383Z,9.47
2019-01-02T01:56:06.674Z,9.51
2019-01-02T01:58:35.689Z,9.49
2019-01-02T02:01:05.183Z,9.52
2019-01-02T02:03:34.214Z,9.53
2019-01-02T02:06:03.307Z,9.54
2019-01-02T02:08:32.654Z,9.54
2019-01-02T02:11:01.685Z,9.49
2019-01-02T02:13:30.740Z,9.50
2019-01-02T02:15:59.771Z,9.47
2019-01-02T02:18:28.861Z,9.45
2019-01-02T02:20:58.192Z,9.45
2019-01-02T02:23:27.241Z,9.45
2019-01-02T02:25:56.265Z,9.48
2019-01-02T02:28:25.664Z,9.51
2019-01-02T02:30:54.717Z,9.53
2019-01-02T02:33:24.114Z,9.54
2019-01-02T02:35:53.563Z,9.57
2019-01-02T02:38:23.017Z,9.57
2019-01-02T02:40:52.425Z,9.62
2019-01-02T02:43:21.498Z,9.64
2019-01-02T02:45:50.542Z,9.65
2019-01-02T02:48:19.917Z,9.63
2019-01-02T02:50:49.213Z,9.61
2019-01-02T02:53:18.592Z,9.61
2019-01-02T02:55:47.958Z,9.62
2019-01-02T02:58:17.306Z,9.64
2019-01-02T03:00:46.603Z,9.63
2019-01-02T03:03:16.040Z,9.59
2019-01-02T03:05:45.112Z,9.62
2019-01-02T03:08:14.160Z,9.63
2019-01-02T03:15:08.937Z,9.65
2019-01-02T03:18:12.884Z,9.66
2019-01-02T03:48:35.423Z,9.33
2019-01-02T03:51:34.373Z,9.28
2019-01-02T03:55:12.759Z,9.26
2019-01-02T03:57:43.460Z,9.19
2019-01-02T04:00:37.047Z,9.19
2019-01-02T04:03:09.342Z,9.20
2019-01-02T04:06:23.671Z,9.23
2019-01-02T04:09:06.286Z,9.22
2019-01-02T04:11:37.747Z,9.27
2019-01-02T04:14:11.239Z,9.28
2019-01-02T04:16:50.360Z,9.27
2019-01-02T04:19:43.316Z,9.29
2019-01-02T04:22:50.401Z,9.32
2019-01-02T04:26:05.408Z,9.32
2019-01-02T04:29:35.458Z,9.35
2019-01-02T04:32:16.533Z,9.35
2019-01-02T04:34:53.714Z,9.38
2019-01-02T04:37:49.316Z,9.38
2019-01-02T04:44:33.254Z,9.41
2019-01-02T04:47:14.590Z,9.44
2019-01-02T04:53:14.726Z,9.45
2019-01-02T04:56:00.464Z,9.48
2019-01-02T04:58:39.736Z,9.49
2019-01-02T05:01:33.412Z,9.48
2019-01-02T05:05:00.918Z,9.52
2019-01-02T05:08:02.026Z,9.53
2019-01-02T09:02:57.266Z,9.97
2019-01-02T09:06:05.279Z,10.00
2019-01-02T09:09:10.142Z,10.00
2019-01-02T09:12:02.848Z,9.94
2019-01-02T09:15:08.062Z,10.01
2019-01-02T09:21:35.957Z,10.05
2019-01-02T17:37:59.460Z,7.70
2019-01-02T17:40:28.662Z,7.68
2019-01-02T17:42:58.269Z,7.67
2019-01-02T17:45:27.518Z,7.68
2019-01-02T17:47:56.916Z,7.66
2019-01-02T17:50:26.429Z,7.65
2019-01-02T17:53:03.413Z,7.65
2019-01-02T17:55:32.575Z,7.65
2019-01-02T17:58:09.906Z,7.66
2019-01-02T18:00:40.383Z,7.68
2019-01-02T18:03:09.987Z,7.67
2019-01-02T18:05:39.677Z,7.69
2019-01-02T18:08:09.634Z,7.69
2019-01-02T18:10:41.518Z,7.70
2019-01-02T18:13:11.383Z,7.72
2019-01-02T18:15:41.922Z,7.73
2019-01-02T18:18:11.784Z,7.73
2019-01-02T18:20:50.670Z,7.73
